createdAt,value
2018-07-06T00:01:20.692Z,94.20
2018-07-06T00:04:00.151Z,94.20
2018-07-06T00:06:39.767Z,94.50
2018-07-06T00:09:20.228Z,95.00
2018-07-06T00:11:59.973Z,94.80
2018-07-06T00:14:39.355Z,94.80
2018-07-06T00:17:18.960Z,94.90
2018-07-06T00:19:58.510Z,95.20
2018-07-06T00:22:38.004Z,95.20
2018-07-06T00:25:17.513Z,95.20
2018-07-06T00:27:57.868Z,95.10
2018-07-06T00:30:37.479Z,95.20
2018-07-06T00:33:17.009Z,95.30
2018-07-06T00:35:56.435Z,95.40
2018-07-06T00:38:35.919Z,95.50
2018-07-06T00:41:15.432Z,95.70
2018-07-06T00:43:55.029Z,95.70
2018-07-06T00:46:34.521Z,95.80
2018-07-06T00:49:14.005Z,95.90
2018-07-06T00:51:53.832Z,96.00
2018-07-06T00:54:33.305Z,96.40
2018-07-06T00:57:12.790Z,96.60
2018-07-06T00:59:52.411Z,96.80
2018-07-06T01:02:32.024Z,96.80
2018-07-06T01:05:11.616Z,96.80
2018-07-06T01:07:51.237Z,96.90
2018-07-06T01:10:30.769Z,96.80
2018-07-06T01:13:10.128Z,96.90
2018-07-06T01:15:49.768Z,96.90
2018-07-06T01:18:29.232Z,96.90
2018-07-06T01:21:08.819Z,97.00
2018-07-06T01:23:48.319Z,97.50
2018-07-06T01:26:27.900Z,97.20
2018-07-06T01:29:07.540Z,97.50
2018-07-06T01:31:47.193Z,97.40
2018-07-06T01:34:26.824Z,97.60
2018-07-06T01:37:06.611Z,97.70
2018-07-06T01:39:46.101Z,97.80
2018-07-06T01:42:25.555Z,97.80
2018-07-06T01:45:05.725Z,97.90
2018-07-06T01:47:45.477Z,97.40
2018-07-06T01:50:25.212Z,97.50
2018-07-06T01:53:05.621Z,97.50
2018-07-06T01:55:45.215Z,97.60
2018-07-06T01:58:24.860Z,97.60
2018-07-06T02:01:04.688Z,97.80
2018-07-06T02:03:44.046Z,97.90
2018-07-06T02:06:23.615Z,98.00
2018-07-06T02:09:03.176Z,98.20
2018-07-06T02:11:42.839Z,98.60
2018-07-06T02:14:22.528Z,98.60
2018-07-06T02:17:02.037Z,98.70
2018-07-06T02:19:41.634Z,98.90
2018-07-06T02:22:21.124Z,99.10
2018-07-06T02:25:00.981Z,99.20
2018-07-06T02:27:40.668Z,99.10
2018-07-06T02:30:20.184Z,99.30
2018-07-06T02:32:59.824Z,99.20
2018-07-06T02:35:39.360Z,99.50
2018-07-06T02:38:18.901Z,99.60
2018-07-06T02:40:58.389Z,99.40
2018-07-06T02:43:38.025Z,99.50
2018-07-06T02:46:17.708Z,99.50
2018-07-06T02:48:57.403Z,99.40
2018-07-06T02:51:37.008Z,99.70
2018-07-06T02:54:16.605Z,99.80
2018-07-06T02:56:56.101Z,99.90
2018-07-06T02:59:35.580Z,99.90
2018-07-06T03:02:15.217Z,99.90
2018-07-06T03:04:55.098Z,99.60
2018-07-06T03:07:34.756Z,99.60
2018-07-06T03:10:14.231Z,99.80
2018-07-06T03:12:53.843Z,99.80
2018-07-06T03:15:33.633Z,99.90
2018-07-06T03:18:13.228Z,99.90
2018-07-06T03:20:52.640Z,99.90
2018-07-06T03:23:32.364Z,99.90
2018-07-06T03:26:11.894Z,99.90
2018-07-06T03:28:51.713Z,99.90
2018-07-06T03:31:30.930Z,99.90
2018-07-06T03:34:10.542Z,99.90
2018-07-06T03:36:50.143Z,99.90
2018-07-06T03:39:29.715Z,99.90
2018-07-06T03:42:09.358Z,99.90
2018-07-06T03:44:48.871Z,99.90
2018-07-06T03:47:28.547Z,99.90
2018-07-06T03:50:08.196Z,99.90
2018-07-06T03:52:47.567Z,99.90
2018-07-06T03:55:27.097Z,99.90
2018-07-06T03:58:06.689Z,99.90
2018-07-06T04:00:46.441Z,99.90
2018-07-06T04:03:26.060Z,99.90
2018-07-06T04:06:05.732Z,99.90
2018-07-06T04:08:45.236Z,99.90
2018-07-06T04:11:24.802Z,99.90
2018-07-06T04:14:04.444Z,99.90
2018-07-06T04:16:44.020Z,99.90
2018-07-06T04:19:23.611Z,99.90
2018-07-06T04:22:03.301Z,99.90
2018-07-06T04:24:42.818Z,99.90
2018-07-06T04:27:22.384Z,99.90
2018-07-06T04:30:01.972Z,99.70
2018-07-06T04:32:41.311Z,99.60
2018-07-06T04:35:20.963Z,99.50
2018-07-06T04:38:00.428Z,99.40
2018-07-06T04:40:40.082Z,99.40
2018-07-06T04:43:19.665Z,99.50
2018-07-06T04:45:59.364Z,99.30
2018-07-06T04:48:38.890Z,99.20
2018-07-06T04:51:18.572Z,99.40
2018-07-06T04:53:58.223Z,99.40
2018-07-06T04:56:37.797Z,99.60
2018-07-06T04:59:17.447Z,99.80
2018-07-06T05:01:57.087Z,99.90
2018-07-06T05:04:36.708Z,99.90
2018-07-06T05:07:16.172Z,99.80
2018-07-06T05:09:55.760Z,99.80
2018-07-06T05:12:35.209Z,99.90
2018-07-06T05:15:14.840Z,99.70
2018-07-06T05:17:54.307Z,99.80
2018-07-06T05:20:33.897Z,99.60
2018-07-06T05:23:13.415Z,99.50
2018-07-06T05:25:52.863Z,99.50
2018-07-06T05:28:32.717Z,99.60
2018-07-06T05:31:12.342Z,99.40
2018-07-06T05:33:51.796Z,99.20
2018-07-06T05:36:31.169Z,99.30
2018-07-06T05:39:11.161Z,98.80
2018-07-06T05:41:50.943Z,99.10
2018-07-06T05:44:30.544Z,99.20
2018-07-06T05:47:10.738Z,98.90
2018-07-06T05:49:50.236Z,98.60
2018-07-06T05:52:29.932Z,98.90
2018-07-06T05:55:09.391Z,98.30
2018-07-06T05:57:49.020Z,98.40
2018-07-06T06:00:28.485Z,98.50
2018-07-06T06:03:08.141Z,98.20
2018-07-06T06:05:47.755Z,98.00
2018-07-06T06:08:15.051Z,97.10
2018-07-06T06:10:43.475Z,97.10
2018-07-06T06:13:12.032Z,96.90
2018-07-06T06:15:40.509Z,97.20
2018-07-06T06:18:08.994Z,96.80
2018-07-06T06:20:37.460Z,96.40
2018-07-06T06:23:05.935Z,97.10
2018-07-06T06:25:34.420Z,96.90
2018-07-06T06:28:03.502Z,96.20
2018-07-06T06:30:32.032Z,95.70
2018-07-06T06:33:00.485Z,96.00
2018-07-06T06:35:28.936Z,95.50
2018-07-06T06:37:57.329Z,95.60
2018-07-06T06:40:25.895Z,96.30
2018-07-06T06:42:54.439Z,95.50
2018-07-06T06:45:23.020Z,94.50
2018-07-06T06:47:51.560Z,95.20
2018-07-06T06:50:20.078Z,95.40
2018-07-06T06:52:48.600Z,95.10
2018-07-06T06:55:17.202Z,94.90
2018-07-06T06:57:45.747Z,94.70
2018-07-06T07:00:14.395Z,95.00
2018-07-06T07:02:43.040Z,95.10
2018-07-06T07:05:11.607Z,94.80
2018-07-06T07:07:40.192Z,94.60
2018-07-06T07:10:08.720Z,94.10
2018-07-06T07:12:37.232Z,94.30
2018-07-06T07:15:06.300Z,94.00
2018-07-06T07:17:34.813Z,93.60
2018-07-06T07:20:03.277Z,93.50
2018-07-06T07:22:31.836Z,93.50
2018-07-06T07:25:01.377Z,93.40
2018-07-06T07:27:30.275Z,92.80
2018-07-06T07:30:00.170Z,92.80
2018-07-06T07:32:28.676Z,92.30
2018-07-06T07:34:57.808Z,92.00
2018-07-06T07:37:26.273Z,91.20
2018-07-06T07:39:54.807Z,90.90
2018-07-06T07:42:23.302Z,91.40
2018-07-06T07:44:51.982Z,91.40
2018-07-06T07:47:20.600Z,91.30
2018-07-06T07:49:49.075Z,91.20
2018-07-06T07:52:28.778Z,90.90
2018-07-06T07:54:57.226Z,90.80
2018-07-06T07:57:25.743Z,90.30
2018-07-06T07:59:55.527Z,91.00
2018-07-06T08:02:24.077Z,91.10
2018-07-06T08:04:53.340Z,91.20
2018-07-06T08:07:21.805Z,90.90
2018-07-06T08:09:50.223Z,90.80
2018-07-06T08:12:18.673Z,90.00
2018-07-06T08:14:47.165Z,91.00
2018-07-06T08:17:15.687Z,89.00
2018-07-06T08:19:44.083Z,87.30
2018-07-06T08:24:40.900Z,88.20
2018-07-06T08:27:09.301Z,88.30
2018-07-06T08:29:37.780Z,90.30
2018-07-06T08:32:06.306Z,87.10
2018-07-06T08:34:45.797Z,88.50
2018-07-06T08:37:57.403Z,88.00
2018-07-06T08:40:26.753Z,87.20
2018-07-06T08:42:57.231Z,88.20
2018-07-06T08:45:26.008Z,87.70
2018-07-06T08:47:55.297Z,88.00
2018-07-06T08:50:23.976Z,87.20
2018-07-06T08:52:52.968Z,86.60
2018-07-06T08:55:21.629Z,86.30
2018-07-06T08:57:51.391Z,88.40
2018-07-06T09:00:19.920Z,88.90
2018-07-06T09:02:48.345Z,88.60
2018-07-06T09:05:16.768Z,87.10
2018-07-06T09:07:45.261Z,86.00
2018-07-06T09:10:13.735Z,86.70
2018-07-06T09:12:42.220Z,85.70
2018-07-06T09:15:10.756Z,85.20
2018-07-06T09:17:40.066Z,84.30
2018-07-06T09:20:08.783Z,83.80
2018-07-06T09:22:37.089Z,83.80
2018-07-06T09:25:06.987Z,82.60
2018-07-06T09:27:35.407Z,81.90
2018-07-06T09:30:03.858Z,81.90
2018-07-06T09:32:32.336Z,81.00
2018-07-06T09:35:01.318Z,78.30
2018-07-06T09:37:29.822Z,79.30
2018-07-06T09:39:58.258Z,80.10
2018-07-06T09:42:26.724Z,80.30
2018-07-06T09:44:55.535Z,79.80
2018-07-06T09:47:23.998Z,80.40
2018-07-06T09:49:52.388Z,81.70
2018-07-06T09:52:20.829Z,80.90
2018-07-06T09:54:49.276Z,82.00
2018-07-06T09:57:17.696Z,81.50
2018-07-06T09:59:46.059Z,80.10
2018-07-06T10:02:14.411Z,79.00
2018-07-06T10:04:42.748Z,80.50
2018-07-06T10:07:11.694Z,79.80
2018-07-06T10:09:40.318Z,79.50
2018-07-06T10:12:08.853Z,77.60
2018-07-06T10:14:38.012Z,77.60
2018-07-06T10:17:06.391Z,79.20
2018-07-06T10:19:35.476Z,75.10
2018-07-06T10:22:03.938Z,76.00
2018-07-06T10:24:32.331Z,78.70
2018-07-06T10:27:00.692Z,78.80
2018-07-06T10:30:05.046Z,77.90
2018-07-06T10:32:33.516Z,77.80
2018-07-06T10:35:02.436Z,75.80
2018-07-06T10:37:31.197Z,76.30
2018-07-06T10:39:59.745Z,75.70
2018-07-06T10:42:28.161Z,75.10
2018-07-06T10:44:56.894Z,74.30
2018-07-06T10:47:25.432Z,78.50
2018-07-06T10:49:53.900Z,71.40
2018-07-06T10:52:22.324Z,69.60
2018-07-06T10:54:50.748Z,72.60
2018-07-06T10:57:19.160Z,72.20
2018-07-06T10:59:47.725Z,71.60
2018-07-06T11:02:16.219Z,71.50
2018-07-06T11:04:44.590Z,71.20
2018-07-06T11:07:13.024Z,71.40
2018-07-06T11:09:41.578Z,68.50
2018-07-06T11:12:10.117Z,69.70
2018-07-06T11:14:38.539Z,69.00
2018-07-06T11:17:07.044Z,70.50
2018-07-06T11:19:35.479Z,69.60
2018-07-06T11:22:03.932Z,66.80
2018-07-06T11:24:32.298Z,66.40
2018-07-06T11:27:00.737Z,67.60
2018-07-06T11:29:29.229Z,65.50
2018-07-06T11:31:57.736Z,69.20
2018-07-06T11:34:26.176Z,64.60
2018-07-06T11:36:54.589Z,63.00
2018-07-06T11:39:22.952Z,62.20
2018-07-06T11:41:51.487Z,61.40
2018-07-06T11:44:19.996Z,62.60
2018-07-06T11:46:49.132Z,64.40
2018-07-06T11:49:17.796Z,62.80
2018-07-06T11:51:46.137Z,66.40
2018-07-06T11:54:14.536Z,61.50
2018-07-06T11:56:42.898Z,61.10
2018-07-06T11:59:11.259Z,61.50
2018-07-06T12:01:39.856Z,64.60
2018-07-06T12:04:08.289Z,63.60
2018-07-06T12:06:36.637Z,64.50
2018-07-06T12:09:05.708Z,59.80
2018-07-06T12:11:34.211Z,57.60
2018-07-06T12:14:02.828Z,57.80
2018-07-06T12:16:31.168Z,58.80
2018-07-06T12:18:59.527Z,59.10
2018-07-06T12:21:27.980Z,62.20
2018-07-06T12:23:56.733Z,58.80
2018-07-06T12:26:25.742Z,58.70
2018-07-06T12:28:54.308Z,59.40
2018-07-06T12:31:22.699Z,60.20
2018-07-06T12:33:51.748Z,57.80
2018-07-06T12:36:20.267Z,57.00
2018-07-06T12:38:48.827Z,56.60
2018-07-06T12:41:17.364Z,57.20
2018-07-06T12:43:45.732Z,55.90
2018-07-06T12:46:14.157Z,57.20
2018-07-06T12:48:42.685Z,57.00
2018-07-06T12:51:11.187Z,54.80
2018-07-06T12:53:39.734Z,55.60
2018-07-06T12:56:08.158Z,56.40
2018-07-06T12:58:37.251Z,55.90
2018-07-06T13:01:05.771Z,57.00
2018-07-06T13:03:34.221Z,59.10
2018-07-06T13:06:02.700Z,53.10
2018-07-06T13:08:31.239Z,54.30
2018-07-06T13:10:59.681Z,54.10
2018-07-06T13:13:28.036Z,55.00
2018-07-06T13:15:56.468Z,54.50
2018-07-06T13:18:24.853Z,59.00
2018-07-06T13:20:53.428Z,53.70
2018-07-06T13:23:21.920Z,55.00
2018-07-06T13:25:50.376Z,55.40
2018-07-06T13:28:18.727Z,53.00
2018-07-06T13:30:47.144Z,56.00
2018-07-06T13:33:15.491Z,53.30
2018-07-06T13:35:44.119Z,51.90
2018-07-06T13:38:12.532Z,50.40
2018-07-06T13:40:41.030Z,51.80
2018-07-06T13:43:10.074Z,50.80
2018-07-06T13:45:38.548Z,53.60
2018-07-06T13:48:06.976Z,53.30
2018-07-06T13:50:35.567Z,51.20
2018-07-06T13:53:04.882Z,48.90
2018-07-06T13:55:33.260Z,46.30
2018-07-06T13:58:01.672Z,46.90
2018-07-06T14:00:30.064Z,49.70
2018-07-06T14:02:58.510Z,49.50
2018-07-06T14:05:26.944Z,48.80
2018-07-06T14:07:55.369Z,47.90
2018-07-06T14:10:23.728Z,47.60
2018-07-06T14:12:52.131Z,48.20
2018-07-06T14:15:20.580Z,48.90
2018-07-06T14:17:49.039Z,47.70
2018-07-06T14:20:17.707Z,47.00
2018-07-06T14:22:46.117Z,47.00
2018-07-06T14:25:14.522Z,47.20
2018-07-06T14:27:42.895Z,49.70
2018-07-06T14:30:11.373Z,47.20
2018-07-06T14:32:39.985Z,47.70
2018-07-06T14:35:08.484Z,46.00
2018-07-06T14:37:37.576Z,45.80
2018-07-06T14:40:05.967Z,45.70
2018-07-06T14:42:34.417Z,48.60
2018-07-06T14:45:05.219Z,49.90
2018-07-06T14:47:33.687Z,51.10
2018-07-06T14:50:02.087Z,49.20
2018-07-06T14:52:30.990Z,53.00
2018-07-06T14:54:59.756Z,51.80
2018-07-06T14:59:56.211Z,56.40
2018-07-06T15:02:24.615Z,56.50
2018-07-06T15:04:53.038Z,57.80
2018-07-06T15:07:21.512Z,59.10
2018-07-06T15:09:50.091Z,59.10
2018-07-06T15:12:18.744Z,59.20
2018-07-06T15:14:47.179Z,58.40
2018-07-06T15:17:15.848Z,58.30
2018-07-06T15:19:44.663Z,58.80
2018-07-06T15:22:13.313Z,58.50
2018-07-06T15:24:41.992Z,58.90
2018-07-06T15:27:10.519Z,58.90
2018-07-06T15:29:38.960Z,57.50
2018-07-06T15:32:07.361Z,53.50
2018-07-06T15:34:35.989Z,54.70
2018-07-06T15:37:04.934Z,50.00
2018-07-06T15:39:33.470Z,48.10
2018-07-06T15:42:01.936Z,51.80
2018-07-06T15:44:32.875Z,48.40
2018-07-06T15:47:01.263Z,48.90
2018-07-06T15:49:29.818Z,46.30
2018-07-06T15:51:58.360Z,46.80
2018-07-06T15:54:26.823Z,48.90
2018-07-06T15:56:55.271Z,49.40
2018-07-06T15:59:23.713Z,51.90
2018-07-06T16:01:52.211Z,52.80
2018-07-06T16:04:20.584Z,53.30
2018-07-06T16:06:48.976Z,53.50
2018-07-06T16:09:17.315Z,52.80
2018-07-06T16:11:45.758Z,55.60
2018-07-06T16:14:14.308Z,54.80
2018-07-06T16:16:42.706Z,57.00
2018-07-06T16:19:11.129Z,56.00
2018-07-06T16:21:39.560Z,54.10
2018-07-06T16:24:07.908Z,58.50
2018-07-06T16:26:36.343Z,58.50
2018-07-06T16:29:04.829Z,55.10
2018-07-06T16:31:33.244Z,59.30
2018-07-06T16:34:01.616Z,57.20
2018-07-06T16:36:30.290Z,58.10
2018-07-06T16:38:59.004Z,58.80
2018-07-06T16:41:27.394Z,60.80
2018-07-06T16:43:56.350Z,59.70
2018-07-06T16:46:24.759Z,60.00
2018-07-06T16:48:53.990Z,58.90
2018-07-06T16:51:23.014Z,56.00
2018-07-06T16:53:51.720Z,53.20
2018-07-06T16:56:20.020Z,53.50
2018-07-06T16:58:48.416Z,54.70
2018-07-06T17:01:16.839Z,53.50
2018-07-06T17:03:45.200Z,55.20
2018-07-06T17:06:13.529Z,50.10
2018-07-06T17:08:41.839Z,51.70
2018-07-06T17:11:10.200Z,53.60
2018-07-06T17:13:38.507Z,51.30
2018-07-06T17:16:06.876Z,51.40
2018-07-06T17:18:36.172Z,51.60
2018-07-06T17:21:04.538Z,54.50
2018-07-06T17:23:32.879Z,52.70
2018-07-06T17:26:01.401Z,53.50
2018-07-06T17:28:30.347Z,55.10
2018-07-06T17:30:58.660Z,53.20
2018-07-06T17:33:26.992Z,57.60
2018-07-06T17:35:55.312Z,56.70
2018-07-06T17:38:23.611Z,55.90
2018-07-06T17:40:51.957Z,52.10
2018-07-06T17:43:20.271Z,54.60
2018-07-06T17:45:48.864Z,53.70
2018-07-06T17:48:17.203Z,52.50
2018-07-06T17:50:45.525Z,51.50
2018-07-06T17:53:13.856Z,54.00
2018-07-06T17:55:42.204Z,53.90
2018-07-06T17:58:10.515Z,54.10
2018-07-06T18:00:38.828Z,53.90
2018-07-06T18:03:08.124Z,53.70
2018-07-06T18:05:36.528Z,53.60
2018-07-06T18:08:05.364Z,54.40
2018-07-06T18:10:33.678Z,55.30
2018-07-06T18:13:02.062Z,53.70
2018-07-06T18:15:30.423Z,55.30
2018-07-06T18:17:58.820Z,55.50
2018-07-06T18:20:27.184Z,55.10
2018-07-06T18:22:55.602Z,55.90
2018-07-06T18:25:23.910Z,55.40
2018-07-06T18:27:52.224Z,55.60
2018-07-06T18:30:20.572Z,56.20
2018-07-06T18:32:48.905Z,56.60
2018-07-06T18:35:17.228Z,56.70
2018-07-06T18:37:45.604Z,57.70
2018-07-06T18:40:13.932Z,58.10
2018-07-06T18:42:42.244Z,57.60
2018-07-06T18:45:11.400Z,56.80
2018-07-06T18:47:39.761Z,57.30
2018-07-06T18:50:08.032Z,57.80
2018-07-06T18:52:36.336Z,57.20
2018-07-06T18:55:05.100Z,57.80
2018-07-06T18:57:33.421Z,58.90
2018-07-06T19:00:01.791Z,59.10
2018-07-06T19:02:30.111Z,59.50
2018-07-06T19:04:58.428Z,59.60
2018-07-06T19:07:26.744Z,61.20
2018-07-06T19:09:55.807Z,60.40
2018-07-06T19:12:24.124Z,60.50
2018-07-06T19:14:52.479Z,60.70
2018-07-06T19:17:20.794Z,60.30
2018-07-06T19:19:49.138Z,61.20
2018-07-06T19:22:17.488Z,61.40
2018-07-06T19:24:45.863Z,61.80
2018-07-06T19:27:14.179Z,61.70
2018-07-06T19:29:42.500Z,62.00
2018-07-06T19:32:10.824Z,62.30
2018-07-06T19:34:39.150Z,62.80
2018-07-06T19:37:07.582Z,62.40
2018-07-06T19:39:36.020Z,62.60
2018-07-06T19:42:04.341Z,63.00
2018-07-06T19:44:32.664Z,63.10
2018-07-06T19:47:01.121Z,63.90
2018-07-06T19:49:29.488Z,64.60
2018-07-06T19:51:57.801Z,64.90
2018-07-06T19:54:26.483Z,64.80
2018-07-06T19:56:54.912Z,64.60
2018-07-06T19:59:23.796Z,64.80
2018-07-06T20:01:52.123Z,64.60
2018-07-06T20:04:20.503Z,64.70
2018-07-06T20:06:49.129Z,65.70
2018-07-06T20:09:17.467Z,66.10
2018-07-06T20:11:45.800Z,67.90
2018-07-06T20:14:14.267Z,67.40
2018-07-06T20:16:42.649Z,68.00
2018-07-06T20:19:10.958Z,68.00
2018-07-06T20:21:39.483Z,68.10
2018-07-06T20:24:07.824Z,68.00
2018-07-06T20:26:36.524Z,68.10
2018-07-06T20:29:04.952Z,68.30
2018-07-06T20:31:33.167Z,68.20
2018-07-06T20:34:02.140Z,68.20
2018-07-06T20:36:30.573Z,68.90
2018-07-06T20:38:58.876Z,69.30
2018-07-06T20:41:27.304Z,69.90
2018-07-06T20:43:55.631Z,70.60
2018-07-06T20:46:23.992Z,71.00
2018-07-06T20:48:52.415Z,71.70
2018-07-06T20:51:20.736Z,72.00
2018-07-06T20:53:49.121Z,71.50
2018-07-06T20:56:17.381Z,71.10
2018-07-06T20:58:45.712Z,71.10
2018-07-06T21:01:14.042Z,71.10
2018-07-06T21:03:42.376Z,70.70
2018-07-06T21:06:10.699Z,70.70
2018-07-06T21:08:39.044Z,70.70
2018-07-06T21:11:07.644Z,70.90
2018-07-06T21:13:35.941Z,71.20
2018-07-06T21:16:04.357Z,71.10
2018-07-06T21:18:32.620Z,71.40
2018-07-06T21:21:00.954Z,71.00
2018-07-06T21:23:29.245Z,70.60
2018-07-06T21:25:57.560Z,70.70
2018-07-06T21:28:25.911Z,70.00
2018-07-06T21:30:54.965Z,69.50
2018-07-06T21:33:23.296Z,70.00
2018-07-06T21:35:51.671Z,72.10
2018-07-06T21:38:19.956Z,72.60
2018-07-06T21:40:48.263Z,73.40
2018-07-06T21:43:16.568Z,72.90
2018-07-06T21:45:45.088Z,74.10
2018-07-06T21:48:13.422Z,75.40
2018-07-06T21:50:41.764Z,75.90
2018-07-06T21:53:10.079Z,75.10
2018-07-06T21:55:38.700Z,75.30
2018-07-06T21:58:07.485Z,75.50
2018-07-06T22:00:40.283Z,75.40
2018-07-06T22:03:10.317Z,76.10
2018-07-06T22:05:39.611Z,77.00
2018-07-06T22:08:08.223Z,77.20
2018-07-06T22:10:37.109Z,76.90
2018-07-06T22:13:06.134Z,76.90
2018-07-06T22:15:49.785Z,77.00
2018-07-06T22:18:19.068Z,76.30
2018-07-06T22:20:48.745Z,75.70
2018-07-06T22:23:17.405Z,76.40
2018-07-06T22:25:46.792Z,76.80
2018-07-06T22:28:15.639Z,77.50
2018-07-06T22:34:34.693Z,78.60
2018-07-06T22:37:05.564Z,78.80
2018-07-06T22:39:37.518Z,78.80
2018-07-06T22:42:06.900Z,79.50
2018-07-06T22:44:40.457Z,78.80
2018-07-06T22:47:09.344Z,79.80
2018-07-06T22:49:42.704Z,80.00
2018-07-06T22:52:15.356Z,80.00
2018-07-06T22:57:18.648Z,79.90
2018-07-06T22:59:48.248Z,80.00
2018-07-06T23:02:19.353Z,79.90
2018-07-06T23:04:52.751Z,80.10
2018-07-06T23:07:22.896Z,79.40
2018-07-06T23:09:51.561Z,79.10
2018-07-06T23:12:19.889Z,78.80
2018-07-06T23:14:48.207Z,78.90
2018-07-06T23:17:16.532Z,79.10
2018-07-06T23:19:45.480Z,80.10
2018-07-06T23:22:19.208Z,78.50
2018-07-06T23:24:47.528Z,78.10
2018-07-06T23:27:15.845Z,78.70
2018-07-06T23:29:44.172Z,78.80
2018-07-06T23:32:12.576Z,78.70
2018-07-06T23:34:40.864Z,81.10
2018-07-06T23:37:09.256Z,81.20
2018-07-06T23:39:37.579Z,82.00
2018-07-06T23:42:05.963Z,82.70
2018-07-06T23:44:34.277Z,83.00
2018-07-06T23:47:02.607Z,83.40
2018-07-06T23:49:30.896Z,83.80
2018-07-06T23:51:59.215Z,83.70
2018-07-06T23:54:27.585Z,83.10
2018-07-06T23:57:02.424Z,81.20
2018-07-06T23:59:30.769Z,82.50
